createdAt,value
2017-08-14T00:00:40.328Z,1013.97
2017-08-14T00:01:40.313Z,1013.93
2017-08-14T00:02:40.301Z,1013.92
2017-08-14T00:03:40.290Z,1013.96
2017-08-14T00:04:40.276Z,1013.96
2017-08-14T00:05:40.265Z,1013.94
2017-08-14T00:06:40.247Z,1013.96
2017-08-14T00:07:40.239Z,1013.92
2017-08-14T00:08:40.223Z,1013.96
2017-08-14T00:09:40.208Z,1013.94
2017-08-14T00:10:40.198Z,1013.95
2017-08-14T00:11:40.181Z,1013.91
2017-08-14T00:12:40.170Z,1013.91
2017-08-14T00:13:40.155Z,1013.9
2017-08-14T00:14:40.141Z,1013.85
2017-08-14T00:15:40.134Z,1013.91
2017-08-14T00:16:40.116Z,1013.88
2017-08-14T00:17:40.103Z,1013.87
2017-08-14T00:18:40.090Z,1013.85
2017-08-14T00:19:40.077Z,1013.85
2017-08-14T00:20:40.064Z,1013.88
2017-08-14T00:21:40.052Z,1013.85
2017-08-14T00:22:40.036Z,1013.85
2017-08-14T00:23:40.025Z,1013.84
2017-08-14T00:24:40.013Z,1013.86
2017-08-14T00:25:40.000Z,1013.86
2017-08-14T00:26:39.984Z,1013.87
2017-08-14T00:27:39.971Z,1013.85
2017-08-14T00:28:39.958Z,1013.89
2017-08-14T00:29:39.947Z,1013.87
2017-08-14T00:30:39.934Z,1013.91
2017-08-14T00:31:39.921Z,1013.88
2017-08-14T00:32:39.905Z,1013.88
2017-08-14T00:33:39.892Z,1013.85
2017-08-14T00:34:39.880Z,1013.83
2017-08-14T00:35:39.870Z,1013.86
2017-08-14T00:36:39.853Z,1013.81
2017-08-14T00:37:39.844Z,1013.8
2017-08-14T00:38:39.826Z,1013.79
2017-08-14T00:39:39.814Z,1013.82
2017-08-14T00:40:39.800Z,1013.81
2017-08-14T00:41:39.787Z,1013.82
2017-08-14T00:42:39.775Z,1013.84
2017-08-14T00:43:39.759Z,1013.82
2017-08-14T00:44:39.749Z,1013.84
2017-08-14T00:45:39.734Z,1013.84
2017-08-14T00:46:39.721Z,1013.82
2017-08-14T00:47:39.707Z,1013.8
2017-08-14T00:48:39.895Z,1013.85
2017-08-14T00:49:39.679Z,1013.85
2017-08-14T00:50:39.669Z,1013.87
2017-08-14T00:51:39.656Z,1013.83
2017-08-14T00:52:39.642Z,1013.82
2017-08-14T00:53:39.628Z,1013.84
2017-08-14T00:54:39.612Z,1013.83
2017-08-14T00:55:39.600Z,1013.8
2017-08-14T00:56:39.587Z,1013.78
2017-08-14T00:57:39.575Z,1013.82
2017-08-14T00:58:39.561Z,1013.84
2017-08-14T00:59:39.548Z,1013.83
2017-08-14T01:00:39.546Z,1013.77
2017-08-14T01:01:39.520Z,1013.79
2017-08-14T01:02:39.507Z,1013.78
2017-08-14T01:03:39.495Z,1013.79
2017-08-14T01:04:39.484Z,1013.79
2017-08-14T01:05:39.468Z,1013.79
2017-08-14T01:06:39.455Z,1013.76
2017-08-14T01:07:39.441Z,1013.78
2017-08-14T01:08:39.430Z,1013.77
2017-08-14T01:09:39.417Z,1013.79
2017-08-14T01:10:39.401Z,1013.8
2017-08-14T01:11:39.389Z,1013.77
2017-08-14T01:12:39.376Z,1013.77
2017-08-14T01:13:39.360Z,1013.75
2017-08-14T01:14:39.351Z,1013.73
2017-08-14T01:15:39.334Z,1013.71
2017-08-14T01:16:39.322Z,1013.7
2017-08-14T01:17:39.309Z,1013.68
2017-08-14T01:18:39.309Z,1013.68
2017-08-14T01:19:39.283Z,1013.69
2017-08-14T01:20:39.272Z,1013.64
2017-08-14T01:21:39.254Z,1013.63
2017-08-14T01:22:39.240Z,1013.64
2017-08-14T01:23:39.226Z,1013.6
2017-08-14T01:24:39.230Z,1013.63
2017-08-14T01:25:39.250Z,1013.64
2017-08-14T01:26:39.187Z,1013.61
2017-08-14T01:27:39.175Z,1013.65
2017-08-14T01:28:39.162Z,1013.62
2017-08-14T01:29:39.147Z,1013.65
2017-08-14T01:30:39.135Z,1013.63
2017-08-14T01:31:39.120Z,1013.67
2017-08-14T01:32:39.108Z,1013.64
2017-08-14T01:33:39.119Z,1013.69
2017-08-14T01:34:39.079Z,1013.71
2017-08-14T01:35:39.067Z,1013.68
2017-08-14T01:36:39.053Z,1013.65
2017-08-14T01:37:39.040Z,1013.67
2017-08-14T01:38:39.027Z,1013.66
2017-08-14T01:39:39.011Z,1013.66
2017-08-14T01:40:39.000Z,1013.7
2017-08-14T01:41:39.192Z,1013.69
2017-08-14T01:42:38.974Z,1013.63
2017-08-14T01:43:38.958Z,1013.64
2017-08-14T01:44:38.946Z,1013.67
2017-08-14T01:45:38.936Z,1013.66
2017-08-14T01:46:38.918Z,1013.65
2017-08-14T01:47:38.906Z,1013.64
2017-08-14T01:48:38.895Z,1013.65
2017-08-14T01:49:38.878Z,1013.63
2017-08-14T01:50:38.864Z,1013.62
2017-08-14T01:51:38.851Z,1013.67
2017-08-14T01:52:38.839Z,1013.68
2017-08-14T01:53:38.824Z,1013.65
2017-08-14T01:54:38.810Z,1013.69
2017-08-14T01:55:38.799Z,1013.64
2017-08-14T01:56:38.784Z,1013.63
2017-08-14T01:57:38.771Z,1013.6
2017-08-14T01:58:38.758Z,1013.63
2017-08-14T01:59:38.744Z,1013.56
2017-08-14T02:00:38.730Z,1013.59
2017-08-14T02:01:38.717Z,1013.58
2017-08-14T02:02:38.704Z,1013.6
2017-08-14T02:03:38.690Z,1013.53
2017-08-14T02:04:38.677Z,1013.54
2017-08-14T02:05:38.662Z,1013.51
2017-08-14T02:06:38.650Z,1013.47
2017-08-14T02:07:38.635Z,1013.48
2017-08-14T02:08:38.621Z,1013.5
2017-08-14T02:09:38.610Z,1013.48
2017-08-14T02:10:38.595Z,1013.47
2017-08-14T02:11:38.580Z,1013.47
2017-08-14T02:12:38.568Z,1013.49
2017-08-14T02:13:38.554Z,1013.46
2017-08-14T02:14:38.541Z,1013.49
2017-08-14T02:15:38.534Z,1013.42
2017-08-14T02:16:38.515Z,1013.41
2017-08-14T02:17:38.500Z,1013.45
2017-08-14T02:18:38.486Z,1013.43
2017-08-14T02:19:38.472Z,1013.42
2017-08-14T02:20:38.459Z,1013.41
2017-08-14T02:21:38.446Z,1013.37
2017-08-14T02:22:38.432Z,1013.39
2017-08-14T02:23:38.419Z,1013.41
2017-08-14T02:24:38.406Z,1013.39
2017-08-14T02:25:38.394Z,1013.3
2017-08-14T02:26:38.378Z,1013.35
2017-08-14T02:27:38.366Z,1013.34
2017-08-14T02:28:38.352Z,1013.32
2017-08-14T02:29:38.337Z,1013.3
2017-08-14T02:30:38.323Z,1013.24
2017-08-14T02:31:38.311Z,1013.29
2017-08-14T02:32:38.297Z,1013.28
2017-08-14T02:33:38.284Z,1013.27
2017-08-14T02:34:38.268Z,1013.31
2017-08-14T02:35:38.255Z,1013.28
2017-08-14T02:36:38.243Z,1013.31
2017-08-14T02:37:38.229Z,1013.28
2017-08-14T02:38:38.221Z,1013.3
2017-08-14T02:39:38.201Z,1013.31
2017-08-14T02:40:38.189Z,1013.28
2017-08-14T02:41:38.174Z,1013.3
2017-08-14T02:42:38.162Z,1013.29
2017-08-14T02:43:38.147Z,1013.28
2017-08-14T02:44:38.135Z,1013.29
2017-08-14T02:45:38.121Z,1013.29
2017-08-14T02:46:38.107Z,1013.28
2017-08-14T02:47:38.093Z,1013.26
2017-08-14T02:48:38.078Z,1013.26
2017-08-14T02:49:38.065Z,1013.28
2017-08-14T02:50:38.052Z,1013.28
2017-08-14T02:51:38.039Z,1013.3
2017-08-14T02:52:38.024Z,1013.27
2017-08-14T02:53:38.012Z,1013.29
2017-08-14T02:54:37.997Z,1013.27
2017-08-14T02:55:37.984Z,1013.26
2017-08-14T02:56:37.969Z,1013.29
2017-08-14T02:57:37.955Z,1013.3
2017-08-14T02:58:37.943Z,1013.26
2017-08-14T02:59:37.930Z,1013.27
2017-08-14T03:00:37.915Z,1013.28
2017-08-14T03:01:37.903Z,1013.27
2017-08-14T03:02:37.889Z,1013.25
2017-08-14T03:03:37.879Z,1013.27
2017-08-14T03:04:37.860Z,1013.3
2017-08-14T03:05:37.845Z,1013.29
2017-08-14T03:06:37.836Z,1013.29
2017-08-14T03:07:37.818Z,1013.26
2017-08-14T03:08:37.806Z,1013.24
2017-08-14T03:09:37.791Z,1013.25
2017-08-14T03:10:37.778Z,1013.24
2017-08-14T03:11:37.764Z,1013.28
2017-08-14T03:12:37.750Z,1013.24
2017-08-14T03:13:37.736Z,1013.26
2017-08-14T03:14:37.723Z,1013.23
2017-08-14T03:15:37.709Z,1013.28
2017-08-14T03:16:37.696Z,1013.28
2017-08-14T03:17:37.688Z,1013.22
2017-08-14T03:18:37.666Z,1013.27
2017-08-14T03:19:37.658Z,1013.24
2017-08-14T03:20:37.641Z,1013.23
2017-08-14T03:21:37.623Z,1013.21
2017-08-14T03:22:37.614Z,1013.2
2017-08-14T03:23:37.597Z,1013.21
2017-08-14T03:24:37.585Z,1013.21
2017-08-14T03:25:37.571Z,1013.2
2017-08-14T03:26:37.557Z,1013.19
2017-08-14T03:27:37.542Z,1013.18
2017-08-14T03:28:37.531Z,1013.21
2017-08-14T03:29:37.515Z,1013.19
2017-08-14T03:30:37.503Z,1013.2
2017-08-14T03:31:37.488Z,1013.21
2017-08-14T03:32:37.474Z,1013.17
2017-08-14T03:33:37.460Z,1013.18
2017-08-14T03:34:37.450Z,1013.21
2017-08-14T03:35:37.433Z,1013.18
2017-08-14T03:36:37.419Z,1013.2
2017-08-14T03:37:37.405Z,1013.21
2017-08-14T03:38:37.393Z,1013.2
2017-08-14T03:39:37.378Z,1013.22
2017-08-14T03:40:37.363Z,1013.23
2017-08-14T03:41:37.552Z,1013.24
2017-08-14T03:42:37.336Z,1013.19
2017-08-14T03:43:37.321Z,1013.2
2017-08-14T03:44:37.306Z,1013.21
2017-08-14T03:45:37.294Z,1013.2
2017-08-14T03:46:37.278Z,1013.16
2017-08-14T03:47:37.264Z,1013.18
2017-08-14T03:48:37.250Z,1013.17
2017-08-14T03:49:37.239Z,1013.18
2017-08-14T03:50:37.226Z,1013.21
2017-08-14T03:51:37.210Z,1013.19
2017-08-14T03:52:37.197Z,1013.22
2017-08-14T03:53:37.181Z,1013.22
2017-08-14T03:54:37.166Z,1013.2
2017-08-14T03:55:37.154Z,1013.16
2017-08-14T03:56:37.140Z,1013.15
2017-08-14T03:57:37.126Z,1013.15
2017-08-14T03:58:37.110Z,1013.16
2017-08-14T03:59:37.099Z,1013.17
2017-08-14T04:00:37.083Z,1013.16
2017-08-14T04:01:37.068Z,1013.19
2017-08-14T04:02:37.055Z,1013.19
2017-08-14T04:03:37.042Z,1013.19
2017-08-14T04:04:37.028Z,1013.15
2017-08-14T04:05:37.012Z,1013.16
2017-08-14T04:06:36.998Z,1013.21
2017-08-14T04:07:36.985Z,1013.13
2017-08-14T04:08:36.975Z,1013.17
2017-08-14T04:09:36.954Z,1013.15
2017-08-14T04:10:36.946Z,1013.18
2017-08-14T04:11:36.930Z,1013.19
2017-08-14T04:12:36.923Z,1013.21
2017-08-14T04:13:36.902Z,1013.16
2017-08-14T04:14:36.888Z,1013.18
2017-08-14T04:15:36.874Z,1013.19
2017-08-14T04:16:36.860Z,1013.16
2017-08-14T04:17:36.843Z,1013.19
2017-08-14T04:18:36.831Z,1013.14
2017-08-14T04:19:36.816Z,1013.11
2017-08-14T04:20:36.802Z,1013.16
2017-08-14T04:21:36.788Z,1013.15
2017-08-14T04:22:36.774Z,1013.13
2017-08-14T04:23:36.763Z,1013.12
2017-08-14T04:24:36.745Z,1013.15
2017-08-14T04:25:36.733Z,1013.13
2017-08-14T04:26:36.719Z,1013.09
2017-08-14T04:27:36.754Z,1013.1
2017-08-14T04:28:36.689Z,1013.07
2017-08-14T04:29:36.676Z,1013.08
2017-08-14T04:30:36.663Z,1013.09
2017-08-14T04:31:36.647Z,1013.1
2017-08-14T04:32:36.637Z,1013.1
2017-08-14T04:33:36.620Z,1013.11
2017-08-14T04:34:36.605Z,1013.08
2017-08-14T04:35:36.590Z,1013.16
2017-08-14T04:36:36.577Z,1013.16
2017-08-14T04:37:36.565Z,1013.16
2017-08-14T04:38:36.549Z,1013.16
2017-08-14T04:39:36.534Z,1013.17
2017-08-14T04:40:36.523Z,1013.19
2017-08-14T04:41:36.506Z,1013.16
2017-08-14T04:42:36.493Z,1013.18
2017-08-14T04:43:36.481Z,1013.19
2017-08-14T04:44:36.466Z,1013.17
2017-08-14T04:45:36.449Z,1013.16
2017-08-14T04:46:36.437Z,1013.16
2017-08-14T04:47:36.423Z,1013.14
2017-08-14T04:48:36.409Z,1013.15
2017-08-14T04:49:36.394Z,1013.18
2017-08-14T04:50:36.380Z,1013.18
2017-08-14T04:51:36.366Z,1013.22
2017-08-14T04:52:36.355Z,1013.2
2017-08-14T04:53:36.339Z,1013.26
2017-08-14T04:54:36.324Z,1013.28
2017-08-14T04:55:36.310Z,1013.24
2017-08-14T04:56:36.295Z,1013.28
2017-08-14T04:57:36.282Z,1013.26
2017-08-14T04:58:36.268Z,1013.25
2017-08-14T04:59:36.256Z,1013.24
2017-08-14T05:00:36.241Z,1013.24
2017-08-14T05:01:36.228Z,1013.22
2017-08-14T05:02:36.214Z,1013.25
2017-08-14T05:03:36.199Z,1013.24
2017-08-14T05:04:36.184Z,1013.24
2017-08-14T05:05:36.171Z,1013.17
2017-08-14T05:06:36.157Z,1013.21
2017-08-14T05:07:36.142Z,1013.2
2017-08-14T05:08:36.137Z,1013.25
2017-08-14T05:09:36.115Z,1013.17
2017-08-14T05:10:36.105Z,1013.18
2017-08-14T05:11:36.087Z,1013.19
2017-08-14T05:12:36.072Z,1013.18
2017-08-14T05:13:36.058Z,1013.21
2017-08-14T05:14:36.046Z,1013.22
2017-08-14T05:15:36.039Z,1013.23
2017-08-14T05:16:36.018Z,1013.19
2017-08-14T05:17:36.006Z,1013.19
2017-08-14T05:18:35.990Z,1013.19
2017-08-14T05:19:35.976Z,1013.12
2017-08-14T05:20:35.963Z,1013.19
2017-08-14T05:21:35.948Z,1013.17
2017-08-14T05:22:35.936Z,1013.14
2017-08-14T05:23:35.921Z,1013.12
2017-08-14T05:24:35.910Z,1013.15
2017-08-14T05:25:35.893Z,1013.17
2017-08-14T05:26:35.881Z,1013.15
2017-08-14T05:27:35.870Z,1013.18
2017-08-14T05:28:35.853Z,1013.15
2017-08-14T05:29:35.839Z,1013.18
2017-08-14T05:30:35.826Z,1013.19
2017-08-14T05:31:35.812Z,1013.18
2017-08-14T05:32:35.799Z,1013.19
2017-08-14T05:33:35.785Z,1013.17
2017-08-14T05:34:35.772Z,1013.21
2017-08-14T05:35:35.758Z,1013.18
2017-08-14T05:36:35.745Z,1013.16
2017-08-14T05:37:35.731Z,1013.2
2017-08-14T05:38:35.716Z,1013.2
2017-08-14T05:39:35.704Z,1013.23
2017-08-14T05:40:35.688Z,1013.17
2017-08-14T05:41:35.878Z,1013.17
2017-08-14T05:42:35.663Z,1013.2
2017-08-14T05:43:35.650Z,1013.18
2017-08-14T05:44:35.637Z,1013.22
2017-08-14T05:45:35.621Z,1013.21
2017-08-14T05:46:35.608Z,1013.19
2017-08-14T05:47:35.597Z,1013.18
2017-08-14T05:48:35.582Z,1013.22
2017-08-14T05:49:35.570Z,1013.23
2017-08-14T05:50:35.559Z,1013.24
2017-08-14T05:51:35.543Z,1013.24
2017-08-14T05:52:35.532Z,1013.26
2017-08-14T05:53:35.517Z,1013.25
2017-08-14T05:54:35.505Z,1013.26
2017-08-14T05:55:35.489Z,1013.23
2017-08-14T05:56:35.480Z,1013.23
2017-08-14T05:57:35.468Z,1013.23
2017-08-14T05:58:35.451Z,1013.25
2017-08-14T05:59:35.448Z,1013.23
2017-08-14T06:00:35.427Z,1013.26
2017-08-14T06:01:35.410Z,1013.28
2017-08-14T06:02:35.398Z,1013.29
2017-08-14T06:03:35.441Z,1013.26
2017-08-14T06:04:35.373Z,1013.29
2017-08-14T06:05:35.408Z,1013.3
2017-08-14T06:06:35.349Z,1013.25
2017-08-14T06:07:35.338Z,1013.29
2017-08-14T06:08:35.318Z,1013.32
2017-08-14T06:09:35.306Z,1013.33
2017-08-14T06:10:35.292Z,1013.31
2017-08-14T06:11:35.281Z,1013.33
2017-08-14T06:12:35.268Z,1013.32
2017-08-14T06:13:35.254Z,1013.3
2017-08-14T06:14:35.242Z,1013.31
2017-08-14T06:15:35.229Z,1013.29
2017-08-14T06:16:35.216Z,1013.26
2017-08-14T06:17:35.201Z,1013.27
2017-08-14T06:18:35.190Z,1013.31
2017-08-14T06:19:35.179Z,1013.3
2017-08-14T06:20:35.164Z,1013.29
2017-08-14T06:21:35.154Z,1013.26
2017-08-14T06:22:35.138Z,1013.27
2017-08-14T06:23:35.126Z,1013.28
2017-08-14T06:24:35.137Z,1013.28
2017-08-14T06:25:35.100Z,1013.28
2017-08-14T06:26:35.088Z,1013.24
2017-08-14T06:27:35.075Z,1013.27
2017-08-14T06:28:35.061Z,1013.31
2017-08-14T06:29:35.049Z,1013.31
2017-08-14T06:30:35.037Z,1013.28
2017-08-14T06:31:35.023Z,1013.3
2017-08-14T06:32:35.011Z,1013.29
2017-08-14T06:33:34.998Z,1013.29
2017-08-14T06:34:34.989Z,1013.3
2017-08-14T06:35:34.972Z,1013.3
2017-08-14T06:36:34.964Z,1013.32
2017-08-14T06:37:34.948Z,1013.31
2017-08-14T06:38:34.936Z,1013.33
2017-08-14T06:39:34.925Z,1013.32
2017-08-14T06:40:34.912Z,1013.33
2017-08-14T06:41:34.900Z,1013.31
2017-08-14T06:42:34.885Z,1013.36
2017-08-14T06:43:34.872Z,1013.32
2017-08-14T06:44:34.884Z,1013.35
2017-08-14T06:45:34.849Z,1013.34
2017-08-14T06:46:34.835Z,1013.34
2017-08-14T06:47:34.832Z,1013.34
2017-08-14T06:48:34.812Z,1013.28
2017-08-14T06:49:34.801Z,1013.3
2017-08-14T06:50:34.786Z,1013.24
2017-08-14T06:51:34.775Z,1013.26
2017-08-14T06:52:34.764Z,1013.31
2017-08-14T06:53:34.751Z,1013.31
2017-08-14T06:54:34.737Z,1013.34
2017-08-14T06:55:34.726Z,1013.33
2017-08-14T06:56:34.713Z,1013.33
2017-08-14T06:57:34.699Z,1013.31
2017-08-14T06:58:34.688Z,1013.32
2017-08-14T06:59:34.733Z,1013.31
2017-08-14T07:00:34.665Z,1013.32
2017-08-14T07:01:34.654Z,1013.26
2017-08-14T07:02:34.639Z,1013.28
2017-08-14T07:03:34.628Z,1013.27
2017-08-14T07:04:34.669Z,1013.31
2017-08-14T07:05:34.607Z,1013.31
2017-08-14T07:06:34.593Z,1013.3
2017-08-14T07:07:34.580Z,1013.29
2017-08-14T07:08:34.569Z,1013.28
2017-08-14T07:09:34.557Z,1013.24
2017-08-14T07:10:34.547Z,1013.21
2017-08-14T07:11:34.536Z,1013.25
2017-08-14T07:12:34.521Z,1013.22
2017-08-14T07:13:34.510Z,1013.2
2017-08-14T07:14:34.498Z,1013.23
2017-08-14T07:15:34.486Z,1013.18
2017-08-14T07:16:34.474Z,1013.23
2017-08-14T07:17:34.464Z,1013.25
2017-08-14T07:18:34.451Z,1013.22
2017-08-14T07:19:34.438Z,1013.25
2017-08-14T07:20:34.428Z,1013.24
2017-08-14T07:21:34.416Z,1013.25
2017-08-14T07:22:34.408Z,1013.25
2017-08-14T07:23:34.393Z,1013.24
2017-08-14T07:24:34.432Z,1013.23
2017-08-14T07:25:34.371Z,1013.24
2017-08-14T07:26:34.358Z,1013.25
2017-08-14T07:27:34.347Z,1013.24
2017-08-14T07:28:34.336Z,1013.24
2017-08-14T07:29:34.325Z,1013.23
2017-08-14T07:30:34.313Z,1013.2
2017-08-14T07:31:34.301Z,1013.2
2017-08-14T07:32:34.290Z,1013.16
2017-08-14T07:33:34.279Z,1013.16
2017-08-14T07:34:34.271Z,1013.17
2017-08-14T07:35:34.256Z,1013.14
2017-08-14T07:36:34.246Z,1013.13
2017-08-14T07:37:34.234Z,1013.12
2017-08-14T07:38:34.222Z,1013.13
2017-08-14T07:39:34.212Z,1013.12
2017-08-14T07:40:34.201Z,1013.06
2017-08-14T07:41:34.187Z,1013.11
2017-08-14T07:42:34.177Z,1013.09
2017-08-14T07:43:34.168Z,1013.09
2017-08-14T07:44:34.158Z,1013.04
2017-08-14T07:45:34.150Z,1013.06
2017-08-14T07:46:34.132Z,1013.06
2017-08-14T07:47:34.122Z,1013.09
2017-08-14T07:48:34.110Z,1013.08
2017-08-14T07:49:34.101Z,1013.09
2017-08-14T07:50:34.089Z,1013.06
2017-08-14T07:51:34.080Z,1013.05
2017-08-14T07:52:34.069Z,1013.05
2017-08-14T07:53:34.064Z,1013.07
2017-08-14T07:54:34.046Z,1013.07
2017-08-14T07:55:34.038Z,1013.05
2017-08-14T07:56:34.025Z,1013.07
2017-08-14T07:57:34.013Z,1013.07
2017-08-14T07:58:34.003Z,1013.1
2017-08-14T07:59:33.994Z,1013.06
2017-08-14T08:00:33.984Z,1013.07
2017-08-14T08:01:33.976Z,1013.07
2017-08-14T08:02:33.959Z,1013.03
2017-08-14T08:03:33.947Z,1013.07
2017-08-14T08:04:33.943Z,1013.05
2017-08-14T08:05:33.926Z,1013.05
2017-08-14T08:06:33.916Z,1013.05
2017-08-14T08:07:33.909Z,1013.04
2017-08-14T08:08:33.897Z,1013.05
2017-08-14T08:09:33.889Z,1013.03
2017-08-14T08:10:33.874Z,1012.99
2017-08-14T08:11:33.866Z,1013
2017-08-14T08:12:33.854Z,1013.02
2017-08-14T08:13:33.848Z,1013
2017-08-14T08:14:33.833Z,1012.99
2017-08-14T08:15:33.822Z,1013.11
2017-08-14T08:16:33.815Z,1013.3
2017-08-14T08:17:33.802Z,1013.32
2017-08-14T08:18:33.791Z,1013.33
2017-08-14T08:19:33.781Z,1013.28
2017-08-14T08:20:33.824Z,1013.33
2017-08-14T08:21:33.763Z,1013.34
2017-08-14T08:22:33.757Z,1013.35
2017-08-14T08:23:33.748Z,1013.29
2017-08-14T08:24:33.741Z,1013.22
2017-08-14T08:25:33.736Z,1013.19
2017-08-14T08:26:33.728Z,1013.2
2017-08-14T08:27:33.723Z,1013.22
2017-08-14T08:28:33.716Z,1013.25
2017-08-14T08:29:33.711Z,1013.27
2017-08-14T08:30:33.705Z,1013.22
2017-08-14T08:31:33.701Z,1013.1
2017-08-14T08:32:33.696Z,1013.11
2017-08-14T08:33:33.691Z,1013.04
2017-08-14T08:34:33.701Z,1013.02
2017-08-14T08:35:33.685Z,1013.02
2017-08-14T08:36:33.677Z,1012.99
2017-08-14T08:37:33.673Z,1013
2017-08-14T08:38:33.668Z,1013.04
2017-08-14T08:39:33.665Z,1013.03
2017-08-14T08:40:33.658Z,1013.03
2017-08-14T08:41:33.655Z,1013.05
2017-08-14T08:42:33.654Z,1013.03
2017-08-14T08:43:33.646Z,1013.08
2017-08-14T08:44:33.638Z,1013.11
2017-08-14T08:45:33.682Z,1013.11
2017-08-14T08:46:33.629Z,1013.01
2017-08-14T08:47:33.624Z,1013.02
2017-08-14T08:48:33.618Z,1012.98
2017-08-14T08:49:33.613Z,1013.03
2017-08-14T08:50:33.607Z,1013
2017-08-14T08:51:33.600Z,1013.03
2017-08-14T08:52:33.596Z,1012.99
2017-08-14T08:53:33.591Z,1012.95
2017-08-14T08:54:33.584Z,1012.98
2017-08-14T08:55:33.578Z,1013
2017-08-14T08:56:33.577Z,1013.01
2017-08-14T08:57:33.567Z,1013.04
2017-08-14T08:58:33.560Z,1013.04
2017-08-14T08:59:33.556Z,1013.01
2017-08-14T09:00:33.559Z,1012.95
2017-08-14T09:01:33.542Z,1012.95
2017-08-14T09:02:33.537Z,1012.92
2017-08-14T09:03:33.532Z,1012.93
2017-08-14T09:04:33.525Z,1012.9
2017-08-14T09:05:33.517Z,1012.9
2017-08-14T09:06:33.511Z,1012.84
2017-08-14T09:07:33.512Z,1012.84
2017-08-14T09:08:33.499Z,1012.83
2017-08-14T09:09:33.491Z,1012.85
2017-08-14T09:10:33.489Z,1012.78
2017-08-14T09:11:33.478Z,1012.79
2017-08-14T09:12:33.470Z,1012.8
2017-08-14T09:13:33.463Z,1012.82
2017-08-14T09:14:33.456Z,1012.76
2017-08-14T09:15:33.450Z,1012.78
2017-08-14T09:16:33.441Z,1012.81
2017-08-14T09:17:33.436Z,1012.77
2017-08-14T09:18:33.430Z,1012.75
2017-08-14T09:19:33.423Z,1012.74
2017-08-14T09:20:33.414Z,1012.76
2017-08-14T09:21:33.408Z,1012.74
2017-08-14T09:22:33.401Z,1012.77
2017-08-14T09:23:33.394Z,1012.75
2017-08-14T09:24:33.387Z,1012.77
2017-08-14T09:25:33.380Z,1012.78
2017-08-14T09:26:33.372Z,1012.74
2017-08-14T09:27:33.369Z,1012.72
2017-08-14T09:28:33.359Z,1012.7
2017-08-14T09:29:33.350Z,1012.67
2017-08-14T09:30:33.344Z,1012.71
2017-08-14T09:31:33.337Z,1012.65
2017-08-14T09:32:33.329Z,1012.71
2017-08-14T09:33:33.322Z,1012.68
2017-08-14T09:34:33.314Z,1012.7
2017-08-14T09:35:33.308Z,1012.72
2017-08-14T09:36:33.301Z,1012.71
2017-08-14T09:37:33.295Z,1012.73
2017-08-14T09:38:33.285Z,1012.69
2017-08-14T09:39:33.278Z,1012.68
2017-08-14T09:40:33.271Z,1012.67
2017-08-14T09:41:33.316Z,1012.64
2017-08-14T09:42:33.458Z,1012.62
2017-08-14T09:43:33.250Z,1012.61
2017-08-14T09:44:33.244Z,1012.62
2017-08-14T09:45:33.235Z,1012.6
2017-08-14T09:46:33.228Z,1012.6
2017-08-14T09:47:33.221Z,1012.61
2017-08-14T09:48:33.214Z,1012.59
2017-08-14T09:49:33.202Z,1012.58
2017-08-14T09:50:33.195Z,1012.64
2017-08-14T09:51:33.239Z,1012.62
2017-08-14T09:52:33.182Z,1012.62
2017-08-14T09:53:33.177Z,1012.62
2017-08-14T09:54:33.172Z,1012.6
2017-08-14T09:55:33.162Z,1012.61
2017-08-14T09:56:33.151Z,1012.63
2017-08-14T09:57:33.146Z,1012.58
2017-08-14T09:58:33.140Z,1012.55
2017-08-14T09:59:33.133Z,1012.55
2017-08-14T10:00:33.133Z,1012.55
2017-08-14T10:01:33.167Z,1012.56
2017-08-14T10:02:33.110Z,1012.54
2017-08-14T10:03:33.102Z,1012.55
2017-08-14T10:04:33.093Z,1012.51
2017-08-14T10:05:33.087Z,1012.5
2017-08-14T10:06:33.084Z,1012.5
2017-08-14T10:07:33.073Z,1012.51
2017-08-14T10:08:33.065Z,1012.51
2017-08-14T10:09:33.057Z,1012.47
2017-08-14T10:10:33.051Z,1012.48
2017-08-14T10:11:33.043Z,1012.49
2017-08-14T10:12:33.039Z,1012.51
2017-08-14T10:13:33.033Z,1012.5
2017-08-14T10:14:33.024Z,1012.5
2017-08-14T10:15:33.013Z,1012.48
2017-08-14T10:16:33.007Z,1012.43
2017-08-14T10:17:33.001Z,1012.4
2017-08-14T10:18:32.990Z,1012.41
2017-08-14T10:19:32.985Z,1012.45
2017-08-14T10:20:32.980Z,1012.43
2017-08-14T10:21:32.974Z,1012.45
2017-08-14T10:22:32.968Z,1012.38
2017-08-14T10:23:32.958Z,1012.41
2017-08-14T10:24:32.952Z,1012.35
2017-08-14T10:25:32.944Z,1012.37
2017-08-14T10:26:32.937Z,1012.34
2017-08-14T10:27:32.931Z,1012.36
2017-08-14T10:28:32.924Z,1012.39
2017-08-14T10:29:32.916Z,1012.36
2017-08-14T10:30:32.911Z,1012.34
2017-08-14T10:31:32.902Z,1012.33
2017-08-14T10:32:32.897Z,1012.32
2017-08-14T10:33:32.894Z,1012.44
2017-08-14T10:34:32.888Z,1012.43
2017-08-14T10:35:32.881Z,1012.38
2017-08-14T10:36:32.874Z,1012.37
2017-08-14T10:37:32.873Z,1012.44
2017-08-14T10:38:32.867Z,1012.5
2017-08-14T10:39:32.861Z,1012.52
2017-08-14T10:40:32.855Z,1012.49
2017-08-14T10:41:32.850Z,1012.57
2017-08-14T10:42:32.848Z,1012.47
2017-08-14T10:43:32.844Z,1012.52
2017-08-14T10:44:32.843Z,1012.56
2017-08-14T10:45:32.841Z,1012.53
2017-08-14T10:46:32.839Z,1012.53
2017-08-14T10:47:32.835Z,1012.57
2017-08-14T10:48:32.834Z,1012.54
2017-08-14T10:49:32.833Z,1012.5
2017-08-14T10:50:32.834Z,1012.47
2017-08-14T10:51:32.831Z,1012.5
2017-08-14T10:52:32.832Z,1012.58
2017-08-14T10:53:32.833Z,1012.56
2017-08-14T10:54:32.834Z,1012.54
2017-08-14T10:55:32.833Z,1012.53
2017-08-14T10:56:32.836Z,1012.48
2017-08-14T10:57:32.841Z,1012.5
2017-08-14T10:58:32.841Z,1012.46
2017-08-14T10:59:32.841Z,1012.39
2017-08-14T11:00:32.845Z,1012.39
2017-08-14T11:01:32.849Z,1012.4
2017-08-14T11:02:32.900Z,1012.39
2017-08-14T11:03:32.854Z,1012.34
2017-08-14T11:04:32.859Z,1012.21
2017-08-14T11:05:32.861Z,1012.19
2017-08-14T11:06:32.864Z,1012.24
2017-08-14T11:07:32.869Z,1012.27
2017-08-14T11:08:32.873Z,1012.34
2017-08-14T11:09:32.880Z,1012.31
2017-08-14T11:10:32.881Z,1012.4
2017-08-14T11:11:32.886Z,1012.4
2017-08-14T11:12:32.892Z,1012.41
2017-08-14T11:13:32.897Z,1012.47
2017-08-14T11:14:32.901Z,1012.49
2017-08-14T11:15:32.907Z,1012.51
2017-08-14T11:16:32.909Z,1012.55
2017-08-14T11:17:32.917Z,1012.5
2017-08-14T11:18:32.922Z,1012.5
2017-08-14T11:19:32.927Z,1012.49
2017-08-14T11:20:32.933Z,1012.47
2017-08-14T11:21:32.941Z,1012.4
2017-08-14T11:22:32.944Z,1012.38
2017-08-14T11:23:32.951Z,1012.31
2017-08-14T11:24:32.955Z,1012.33
2017-08-14T11:25:32.961Z,1012.34
2017-08-14T11:26:32.969Z,1012.26
2017-08-14T11:27:32.978Z,1012.3
2017-08-14T11:28:32.986Z,1012.25
2017-08-14T11:29:32.990Z,1012.2
2017-08-14T11:30:32.995Z,1012.23
2017-08-14T11:31:32.999Z,1012.23
2017-08-14T11:32:33.006Z,1012.19
2017-08-14T11:33:33.013Z,1012.19
2017-08-14T11:34:33.018Z,1012.2
2017-08-14T11:35:33.025Z,1012.15
2017-08-14T11:36:33.033Z,1012.15
2017-08-14T11:37:33.038Z,1012.16
2017-08-14T11:38:33.045Z,1012.12
2017-08-14T11:39:33.065Z,1012.16
2017-08-14T11:40:33.060Z,1012.14
2017-08-14T11:41:33.076Z,1012.14
2017-08-14T11:42:33.275Z,1012.13
2017-08-14T11:43:33.083Z,1012.18
2017-08-14T11:44:33.088Z,1012.15
2017-08-14T11:45:33.093Z,1012.13
2017-08-14T11:46:33.102Z,1012.1
2017-08-14T11:47:33.113Z,1012.09
2017-08-14T11:48:33.115Z,1012.05
2017-08-14T11:49:33.123Z,1011.98
2017-08-14T11:50:33.128Z,1011.99
2017-08-14T11:51:33.136Z,1012
2017-08-14T11:52:33.145Z,1011.99
2017-08-14T11:53:33.150Z,1012
2017-08-14T11:54:33.164Z,1011.91
2017-08-14T11:55:33.165Z,1011.94
2017-08-14T11:56:33.174Z,1011.94
2017-08-14T11:57:33.182Z,1011.97
2017-08-14T11:58:33.188Z,1011.96
2017-08-14T11:59:33.196Z,1011.87
2017-08-14T12:00:33.201Z,1011.85
2017-08-14T12:01:33.210Z,1011.84
2017-08-14T12:02:33.219Z,1011.89
2017-08-14T12:03:33.279Z,1011.79
2017-08-14T12:04:33.231Z,1011.9
2017-08-14T12:05:33.239Z,1011.78
2017-08-14T12:06:33.245Z,1011.73
2017-08-14T12:07:33.253Z,1011.72
2017-08-14T12:08:33.259Z,1011.72